Bayside, New York
Current Conditions -  °F | °C
As of 8:51 AM on Thursday 18 Dec 2014 (Local Time) from KLGA Reporting Station
Scattered Clouds Scattered Clouds  
Wind Chill: 29°   Ceiling: Unl
Heat Index: 39°   Visibility: 10mi
Dew Point: 24°   Wind: 22mph
Humidity: 55%   Direction: 300°WNW
Pressure: 29.98"   Gusts: 29mph
Location:  40.77°N, 73.78°W
Report Text: KLGA 181351Z 30019G25KT 10SM SCT041 04/M04 A2998 RMK AO2 PK WND 31026/1259 SLP151 T00391044
Loading
Personal Weather Stations






























Interactive Weather Map New forecast layout! Learn more

10-Day Weather Forecast

Advertisements
Track Severe Weather on mobile